Main page
METAR-TAF:

METAR-TAF

Airports :

Tehran, Iran

Mehrabad International Airport

latitude: 35-41N, longitude: 051-21E, elevation: 1204 m

Current weather observation

The report was made 48 minutes ago, at 06:30 UTC
Wind 8 kt from the South
Temperature 26°C
Humidity 23%
Pressure 1020 hPa
Visibility 10 km or more
no clouds below 1500 m and no cumulonimbus

METAR: OIII 260630Z 18008KT CAVOK 26/03 Q1020 A3013 NOSIG

Time: 10:48 (07:18 UTC)

Forecast

The report was made 8 hours and 18 minutes ago, at 23:00 UTC
Forecast valid from 26 at 00 UTC to 27 at 06 UTC
Wind 8 kt from the South
Visibility: 8000 m

TAF: OIII 252300Z 2600/2706 18004MPS 8000 NSC

Weather observations and forecasts of more than 4000 airports (METAR and TAF reports).

The available stations are represented by yellow and red dots on the map.

Hover mouse over dot to see the name of the station.

Then click to see weather observations and forecasts.

To change the map : click on the green buttons with a black cross to zoom in, on the green button with a dash to zoom out, or on the green arrows for adjacent maps.


METAR-TAF: